Time;durP1;ratioP1;P1;durP2;ratioP2;P2;SDS_P1;SDS_P2;PMS_P1;PMS_P2;Temp;Humidity;BMP_temperature;BMP_pressure;BME280_temperature;BME280_humidity;BME280_pressure;Samples;Min_cycle;Max_cycle;Signal;HPM_P1;HPM_P2
2022/12/25 00:01:20;;;;;;;4.33;3.20;;;10.40;99.90;;;;;;5102179;28;20194;-85
2022/12/25 00:03:46;;;;;;;2.93;2.57;;;10.30;99.90;;;;;;5100538;28;20252;-86
2022/12/25 00:06:12;;;;;;;4.23;3.10;;;10.30;99.90;;;;;;5096876;28;20191;-85
2022/12/25 00:08:38;;;;;;;3.93;2.67;;;10.30;99.90;;;;;;5102163;28;20732;-88
2022/12/25 00:11:13;;;;;;;4.67;2.93;;;10.30;99.90;;;;;;5096510;28;20188;-87
2022/12/25 00:13:39;;;;;;;4.67;2.90;;;10.30;99.90;;;;;;5104553;28;20192;-85
2022/12/25 00:16:25;;;;;;;3.17;2.67;;;10.30;99.90;;;;;;5096672;28;20183;-88
2022/12/25 00:18:52;;;;;;;4.37;3.40;;;10.30;99.90;;;;;;5095657;28;20214;-89
2022/12/25 00:21:19;;;;;;;3.87;2.83;;;10.30;99.90;;;;;;5100154;28;20183;-89
2022/12/25 00:23:45;;;;;;;3.83;3.10;;;10.30;99.90;;;;;;5094087;28;20211;-88
2022/12/25 00:26:16;;;;;;;3.33;2.70;;;10.30;99.90;;;;;;5094859;28;20180;-86
2022/12/25 00:28:42;;;;;;;4.90;3.37;;;10.30;99.90;;;;;;5103741;28;20223;-86
2022/12/25 00:31:11;;;;;;;6.60;2.90;;;10.30;99.90;;;;;;5105148;28;20184;-86
2022/12/25 00:33:39;;;;;;;3.90;3.50;;;10.30;99.90;;;;;;5098618;28;20176;-86
2022/12/25 00:36:05;;;;;;;4.00;3.37;;;10.30;99.90;;;;;;5100965;28;20211;-87
2022/12/25 00:38:33;;;;;;;5.90;3.93;;;10.30;99.90;;;;;;5104469;28;20211;-90
2022/12/25 00:40:58;;;;;;;7.00;4.40;;;10.30;99.90;;;;;;5110833;28;20262;-87
2022/12/25 00:43:24;;;;;;;5.57;4.10;;;10.30;99.90;;;;;;5109073;28;20187;-88
2022/12/25 00:45:56;;;;;;;5.37;3.33;;;10.30;99.90;;;;;;5101225;28;20188;-88
2022/12/25 00:48:22;;;;;;;4.23;3.70;;;10.30;99.90;;;;;;5109138;28;20244;-85
2022/12/25 00:50:47;;;;;;;4.97;3.63;;;10.30;99.90;;;;;;5107361;28;20565;-85
2022/12/25 00:53:13;;;;;;;6.23;3.83;;;10.40;99.90;;;;;;5106983;28;20690;-88
2022/12/25 00:55:39;;;;;;;6.97;4.33;;;10.40;99.90;;;;;;5098412;28;20200;-86
2022/12/25 00:58:04;;;;;;;7.30;4.23;;;10.50;99.90;;;;;;5102022;28;20256;-86
2022/12/25 01:00:30;;;;;;;4.03;3.67;;;10.40;99.90;;;;;;5102419;28;20211;-86
2022/12/25 01:02:55;;;;;;;4.40;3.57;;;10.40;99.90;;;;;;5101806;28;20233;-86
2022/12/25 01:05:21;;;;;;;5.17;3.70;;;10.40;99.90;;;;;;5092866;28;20191;-87
2022/12/25 01:07:47;;;;;;;4.20;3.67;;;10.30;99.90;;;;;;5100261;28;20209;-87
2022/12/25 01:10:21;;;;;;;6.73;4.23;;;10.30;99.90;;;;;;5101882;28;20214;-85
2022/12/25 01:12:47;;;;;;;4.00;3.33;;;10.30;99.90;;;;;;5096696;28;20192;-87
2022/12/25 01:15:13;;;;;;;4.50;3.80;;;10.30;99.90;;;;;;5100857;28;20458;-88
2022/12/25 01:17:39;;;;;;;4.93;3.53;;;10.30;99.90;;;;;;5101941;28;20186;-83
2022/12/25 01:20:05;;;;;;;6.33;3.60;;;10.30;99.90;;;;;;5106043;28;20218;-84
2022/12/25 01:22:31;;;;;;;4.70;3.60;;;10.30;99.90;;;;;;5096488;28;20192;-88
2022/12/25 01:24:56;;;;;;;5.40;3.37;;;10.20;99.90;;;;;;5095553;28;20194;-85
2022/12/25 01:27:22;;;;;;;4.47;3.53;;;10.20;99.90;;;;;;5098839;28;20200;-88
2022/12/25 01:29:47;;;;;;;4.17;3.40;;;10.30;99.90;;;;;;5102580;28;20226;-85
2022/12/25 01:32:13;;;;;;;3.63;3.33;;;10.20;99.90;;;;;;5101316;28;20268;-86
2022/12/25 01:34:39;;;;;;;4.80;3.23;;;10.20;99.90;;;;;;5104897;28;20173;-86
2022/12/25 01:37:05;;;;;;;3.50;3.20;;;10.30;99.90;;;;;;5097568;28;20191;-86
2022/12/25 01:39:31;;;;;;;3.83;3.20;;;10.30;99.90;;;;;;5105587;28;20209;-87
2022/12/25 01:41:57;;;;;;;4.57;3.63;;;10.20;99.90;;;;;;5102867;28;20218;-86
2022/12/25 01:44:35;;;;;;;7.70;4.83;;;10.30;99.90;;;;;;5109627;28;20197;-85
2022/12/25 01:47:04;;;;;;;5.63;4.63;;;10.40;99.90;;;;;;5104236;28;20186;-84
2022/12/25 01:49:32;;;;;;;4.97;4.07;;;10.40;99.90;;;;;;5110795;28;20217;-86
2022/12/25 01:51:59;;;;;;;6.07;4.17;;;10.30;99.90;;;;;;5108068;28;20191;-85
2022/12/25 01:54:27;;;;;;;6.63;4.13;;;10.30;99.90;;;;;;5103475;28;20559;-84
2022/12/25 01:56:56;;;;;;;7.17;4.23;;;10.20;99.90;;;;;;5098953;28;20182;-92
2022/12/25 01:59:24;;;;;;;6.13;4.07;;;10.30;99.90;;;;;;5107819;28;20198;-90
2022/12/25 02:01:50;;;;;;;6.70;5.40;;;10.20;99.90;;;;;;5110826;28;20197;-88
2022/12/25 02:04:37;;;;;;;6.20;5.20;;;10.20;99.90;;;;;;5115532;28;20195;-90
2022/12/25 02:07:18;;;;;;;6.03;5.10;;;10.10;99.90;;;;;;5094917;28;20694;-83
2022/12/25 02:09:44;;;;;;;4.50;4.00;;;10.10;99.90;;;;;;5093830;28;20211;-84
2022/12/25 02:12:20;;;;;;;4.83;3.27;;;10.20;99.90;;;;;;5099343;28;20232;-88
2022/12/25 02:14:48;;;;;;;4.83;3.63;;;10.20;99.90;;;;;;5099375;28;20187;-85
2022/12/25 02:17:22;;;;;;;3.97;3.50;;;10.20;99.90;;;;;;5102390;28;20187;-87
2022/12/25 02:20:04;;;;;;;4.80;4.30;;;10.10;99.90;;;;;;5104423;28;20209;-88
2022/12/25 02:22:49;;;;;;;5.17;4.60;;;10.10;99.90;;;;;;5101521;28;20286;-85
2022/12/25 02:25:20;;;;;;;6.20;3.80;;;10.20;99.90;;;;;;5096912;28;20211;-86
2022/12/25 02:28:09;;;;;;;6.33;3.73;;;10.20;99.90;;;;;;5095749;28;20186;-85
2022/12/25 02:30:45;;;;;;;3.73;3.00;;;10.10;99.90;;;;;;5084457;28;20227;-84
2022/12/25 02:36:08;;;;;;;4.50;3.73;;;10.10;99.90;;;;;;5101056;28;20236;-86
2022/12/25 02:39:56;;;;;;;5.20;3.70;;;10.10;99.90;;;;;;5093942;28;20186;-83
2022/12/25 02:41:29;;;;;;;7.07;3.50;;;10.00;99.90;;;;;;5095219;28;20202;-87
2022/12/25 03:06:43;;;;;;;5.77;3.40;;;9.80;99.90;;;;;;5095066;28;20190;-85
2022/12/25 03:12:28;;;;;;;4.67;3.30;;;9.80;99.90;;;;;;5100764;28;20204;-87
2022/12/25 03:17:38;;;;;;;5.20;3.37;;;9.80;99.90;;;;;;5093718;28;20190;-87
2022/12/25 03:28:19;;;;;;;3.50;3.20;;;9.70;99.90;;;;;;5103958;28;20221;-86
2022/12/25 03:35:21;;;;;;;3.47;3.17;;;9.70;99.90;;;;;;5106943;28;20193;-86
2022/12/25 03:36:37;;;;;;;2.83;2.63;;;9.70;99.90;;;;;;5101281;28;20230;-86
2022/12/25 03:49:36;;;;;;;5.57;2.73;;;9.90;99.90;;;;;;5091967;28;20262;-87
2022/12/25 04:37:51;;;;;;;4.40;3.53;;;9.70;99.90;;;;;;5098963;28;20198;-87
2022/12/25 04:40:17;;;;;;;5.10;4.37;;;9.70;99.90;;;;;;5102443;28;20273;-84
2022/12/25 04:42:43;;;;;;;5.70;4.40;;;9.70;99.90;;;;;;5096281;28;20186;-85
2022/12/25 04:45:09;;;;;;;7.77;5.40;;;9.60;99.90;;;;;;5104406;28;20201;-84
2022/12/25 04:47:35;;;;;;;6.90;4.33;;;9.50;99.90;;;;;;5099211;28;20344;-83
2022/12/25 04:50:00;;;;;;;4.73;4.20;;;9.60;99.90;;;;;;5096493;28;20236;-85
2022/12/25 04:52:26;;;;;;;5.57;3.90;;;9.50;99.90;;;;;;5100206;28;20190;-87
2022/12/25 04:54:52;;;;;;;4.37;3.20;;;9.50;99.90;;;;;;5100502;28;20279;-84
2022/12/25 04:57:17;;;;;;;4.77;3.87;;;9.60;99.90;;;;;;5102678;28;20436;-88
2022/12/25 04:59:43;;;;;;;4.83;3.50;;;9.60;99.90;;;;;;5098598;28;20232;-85
2022/12/25 05:02:08;;;;;;;4.53;3.43;;;9.60;99.90;;;;;;5102971;28;20191;-88
2022/12/25 05:04:34;;;;;;;4.03;3.53;;;9.60;99.90;;;;;;5099486;28;20309;-86
2022/12/25 05:07:00;;;;;;;4.20;3.63;;;9.60;99.90;;;;;;5094003;28;20225;-84
2022/12/25 05:09:25;;;;;;;5.90;3.83;;;9.70;99.90;;;;;;5094819;28;20587;-87
2022/12/25 05:11:51;;;;;;;6.10;3.80;;;9.70;99.90;;;;;;5098182;28;20206;-85
2022/12/25 05:14:17;;;;;;;4.33;3.53;;;9.70;99.90;;;;;;5094790;28;20206;-86
2022/12/25 05:16:42;;;;;;;4.97;3.40;;;9.80;99.90;;;;;;5100893;28;20709;-87
2022/12/25 05:19:09;;;;;;;4.27;3.70;;;9.70;99.90;;;;;;5095886;28;20215;-88
2022/12/25 05:21:34;;;;;;;4.43;3.57;;;9.60;99.90;;;;;;5104011;28;20192;-86
2022/12/25 05:24:00;;;;;;;4.20;3.60;;;9.70;99.90;;;;;;5101325;28;20237;-86
2022/12/25 05:26:26;;;;;;;5.27;3.40;;;9.70;99.90;;;;;;5101920;28;20197;-84
2022/12/25 05:28:52;;;;;;;4.87;3.70;;;9.60;99.90;;;;;;5102054;28;20275;-85
2022/12/25 05:31:18;;;;;;;3.77;3.37;;;9.60;99.90;;;;;;5101516;28;20202;-87
2022/12/25 05:33:44;;;;;;;4.23;3.13;;;9.60;99.90;;;;;;5109889;28;20198;-84
2022/12/25 05:36:11;;;;;;;4.83;3.47;;;9.50;99.90;;;;;;5103208;28;20183;-89
2022/12/25 05:38:38;;;;;;;4.17;3.73;;;9.60;99.90;;;;;;5108516;28;20190;-85
2022/12/25 05:41:04;;;;;;;5.23;3.57;;;9.50;99.90;;;;;;5097434;28;20194;-84
2022/12/25 05:43:30;;;;;;;4.37;3.07;;;9.40;99.90;;;;;;5104328;28;20230;-85
2022/12/25 05:45:57;;;;;;;3.77;3.20;;;9.40;99.90;;;;;;5104321;28;20206;-84
2022/12/25 05:48:23;;;;;;;4.17;3.73;;;9.50;99.90;;;;;;5099275;28;20190;-86
2022/12/25 05:50:48;;;;;;;6.30;3.37;;;9.40;99.90;;;;;;5098913;28;20210;-87
2022/12/25 05:53:15;;;;;;;4.50;3.13;;;9.40;99.90;;;;;;5105124;28;20186;-87
2022/12/25 05:55:42;;;;;;;3.73;3.30;;;9.30;99.90;;;;;;5104856;28;20190;-86
2022/12/25 05:58:09;;;;;;;3.77;3.40;;;9.50;99.90;;;;;;5099128;28;20191;-85
2022/12/25 06:00:35;;;;;;;3.73;3.40;;;9.50;99.90;;;;;;5097666;28;20704;-87
2022/12/25 06:03:02;;;;;;;6.43;4.23;;;9.50;99.90;;;;;;5093891;28;20198;-86
2022/12/25 06:05:27;;;;;;;6.13;4.07;;;9.60;99.90;;;;;;5096717;28;20246;-86
2022/12/25 06:07:53;;;;;;;4.70;3.67;;;9.60;99.90;;;;;;5103011;28;20193;-85
2022/12/25 06:10:19;;;;;;;4.70;3.63;;;9.60;99.90;;;;;;5098153;28;20244;-85
2022/12/25 06:12:45;;;;;;;4.17;3.60;;;9.50;99.90;;;;;;5099839;28;20759;-85
2022/12/25 06:15:11;;;;;;;6.17;4.50;;;9.50;99.90;;;;;;5112521;28;20273;-86
2022/12/25 06:17:36;;;;;;;6.30;4.60;;;9.50;99.90;;;;;;5106139;28;20182;-88
2022/12/25 06:20:03;;;;;;;7.37;5.30;;;9.50;99.90;;;;;;5108037;28;20213;-89
2022/12/25 06:22:30;;;;;;;5.17;4.20;;;9.50;99.90;;;;;;5092714;28;20192;-86
2022/12/25 06:24:56;;;;;;;4.03;3.70;;;9.50;99.90;;;;;;5100696;28;20203;-85
2022/12/25 06:27:21;;;;;;;6.00;3.87;;;9.60;99.90;;;;;;5101146;28;20190;-87
2022/12/25 06:29:47;;;;;;;5.00;4.30;;;9.50;99.90;;;;;;5097595;28;20222;-88
2022/12/25 06:32:13;;;;;;;5.50;3.90;;;9.50;99.90;;;;;;5093377;28;20193;-86
2022/12/25 06:34:38;;;;;;;7.03;4.43;;;9.40;99.90;;;;;;5095533;28;20255;-85
2022/12/25 06:37:04;;;;;;;4.37;3.97;;;9.40;99.90;;;;;;5097782;28;20253;-84
2022/12/25 06:39:33;;;;;;;5.63;4.47;;;9.30;99.90;;;;;;5112300;28;20272;-87
2022/12/25 06:41:59;;;;;;;6.77;4.50;;;9.40;99.90;;;;;;5121743;28;20184;-87
2022/12/25 06:44:25;;;;;;;6.73;4.40;;;9.20;99.90;;;;;;5116870;28;20193;-87
2022/12/25 06:46:54;;;;;;;4.77;4.27;;;9.30;99.90;;;;;;5116961;28;20186;-88
2022/12/25 06:49:20;;;;;;;4.63;4.13;;;9.30;99.90;;;;;;5110352;28;20319;-84
2022/12/25 06:51:46;;;;;;;4.93;3.93;;;9.30;99.90;;;;;;5109698;28;20189;-87
2022/12/25 06:54:12;;;;;;;4.23;3.23;;;9.30;99.90;;;;;;5122428;28;20224;-87
2022/12/25 06:56:38;;;;;;;3.90;3.50;;;9.20;99.90;;;;;;5116502;28;20177;-85
2022/12/25 06:59:09;;;;;;;5.17;3.57;;;9.20;99.90;;;;;;5112613;28;20252;-91
2022/12/25 07:01:49;;;;;;;6.63;3.73;;;9.10;99.90;;;;;;5122067;28;20424;-84
2022/12/25 07:04:24;;;;;;;4.47;3.50;;;9.00;99.90;;;;;;5114717;28;20181;-87
2022/12/25 07:06:50;;;;;;;5.13;3.60;;;9.00;99.90;;;;;;5113003;28;20181;-90
2022/12/25 07:09:15;;;;;;;4.50;3.13;;;9.00;99.90;;;;;;5113885;28;20224;-84
2022/12/25 07:11:41;;;;;;;7.77;3.73;;;9.10;99.90;;;;;;5117763;28;20173;-84
2022/12/25 07:14:13;;;;;;;4.33;3.90;;;9.20;99.90;;;;;;5116231;28;20185;-86
2022/12/25 07:16:39;;;;;;;3.90;3.50;;;9.20;99.90;;;;;;5109764;28;20237;-85
2022/12/25 07:19:05;;;;;;;4.70;3.60;;;9.30;99.90;;;;;;5109849;28;20297;-84
2022/12/25 07:21:30;;;;;;;4.80;3.47;;;9.20;99.90;;;;;;5115981;28;20211;-84
2022/12/25 07:23:56;;;;;;;4.70;3.50;;;9.10;99.90;;;;;;5111111;28;20194;-88
2022/12/25 07:26:22;;;;;;;4.27;3.17;;;9.10;99.90;;;;;;5106710;28;20190;-84
2022/12/25 07:28:47;;;;;;;10.17;9.17;;;9.20;99.90;;;;;;5110166;28;20210;-84
2022/12/25 07:31:15;;;;;;;6.77;6.07;;;9.20;99.90;;;;;;5098380;28;20472;-86
2022/12/25 07:33:41;;;;;;;5.10;3.60;;;9.30;99.90;;;;;;5118284;28;20186;-86
2022/12/25 07:36:07;;;;;;;4.37;3.57;;;9.20;99.90;;;;;;5119540;28;20182;-90
2022/12/25 07:38:33;;;;;;;5.37;3.57;;;9.20;99.90;;;;;;5099025;28;20185;-87
2022/12/25 07:40:59;;;;;;;4.60;4.20;;;9.20;99.90;;;;;;5106492;28;20181;-88
2022/12/25 07:43:27;;;;;;;3.60;3.27;;;9.30;99.90;;;;;;5109067;28;20189;-90
2022/12/25 07:45:57;;;;;;;3.53;3.10;;;9.10;99.90;;;;;;5092139;28;20237;-90
2022/12/25 07:48:24;;;;;;;4.93;3.00;;;9.00;99.90;;;;;;5100515;28;20193;-83
2022/12/25 07:50:58;;;;;;;4.50;3.57;;;8.90;99.90;;;;;;5104757;28;20203;-87
2022/12/25 07:53:24;;;;;;;4.93;3.40;;;9.00;99.90;;;;;;5114211;28;20160;-89
2022/12/25 07:55:57;;;;;;;4.20;3.23;;;9.10;99.90;;;;;;5112064;28;20304;-85
2022/12/25 07:58:23;;;;;;;5.83;3.03;;;9.20;99.90;;;;;;5105017;28;20184;-92
2022/12/25 08:00:49;;;;;;;3.30;3.00;;;9.30;99.90;;;;;;5106927;28;20202;-87
2022/12/25 08:03:15;;;;;;;5.97;3.70;;;9.20;99.90;;;;;;5114034;28;20209;-85
2022/12/25 08:05:41;;;;;;;4.30;3.10;;;9.10;99.90;;;;;;5094190;28;20281;-85
2022/12/25 08:08:08;;;;;;;5.10;3.57;;;9.10;99.90;;;;;;5106618;28;20199;-86
2022/12/25 08:10:33;;;;;;;4.37;3.97;;;9.20;99.90;;;;;;5096889;28;20245;-91
2022/12/25 08:12:59;;;;;;;7.53;4.00;;;9.20;99.90;;;;;;5104447;28;20199;-86
2022/12/25 08:15:25;;;;;;;5.43;3.73;;;9.30;99.90;;;;;;5107674;28;20197;-84
2022/12/25 08:17:51;;;;;;;4.57;3.50;;;9.40;99.90;;;;;;5110218;28;20246;-89
2022/12/25 08:20:17;;;;;;;3.93;3.60;;;9.50;99.90;;;;;;5104462;28;20280;-85
2022/12/25 08:22:42;;;;;;;4.57;3.50;;;9.50;99.90;;;;;;5100673;28;20270;-85
2022/12/25 08:25:08;;;;;;;8.77;4.20;;;9.50;99.90;;;;;;5096449;28;20216;-87
2022/12/25 08:27:34;;;;;;;5.40;4.00;;;9.50;99.90;;;;;;5101449;28;20190;-88
2022/12/25 08:30:00;;;;;;;4.40;3.33;;;9.50;99.90;;;;;;5096409;28;20223;-84
2022/12/25 08:32:26;;;;;;;5.50;3.67;;;9.60;99.90;;;;;;5100403;28;20191;-85
2022/12/25 08:34:52;;;;;;;4.27;3.87;;;9.50;99.90;;;;;;5100258;28;20177;-89
2022/12/25 08:37:17;;;;;;;6.20;3.60;;;9.50;99.90;;;;;;5115573;28;20230;-88
2022/12/25 08:39:43;;;;;;;3.93;3.63;;;9.60;99.90;;;;;;5100843;28;20296;-86
2022/12/25 08:42:09;;;;;;;5.50;4.40;;;9.60;99.90;;;;;;5107959;28;20201;-88
2022/12/25 08:44:35;;;;;;;4.97;3.50;;;9.50;99.90;;;;;;5105017;28;20210;-85
2022/12/25 08:47:00;;;;;;;4.47;3.97;;;9.50;99.90;;;;;;5091512;28;20198;-89
2022/12/25 08:49:27;;;;;;;5.90;4.73;;;9.50;99.90;;;;;;5099535;28;20220;-84
2022/12/25 08:51:53;;;;;;;5.23;4.73;;;9.60;99.90;;;;;;5102378;28;20254;-88
2022/12/25 08:54:19;;;;;;;7.13;4.77;;;9.60;99.90;;;;;;5103244;28;20175;-89
2022/12/25 08:56:46;;;;;;;6.63;5.90;;;9.60;99.90;;;;;;5099468;28;20176;-88
2022/12/25 08:59:12;;;;;;;5.83;5.33;;;9.70;99.90;;;;;;5098875;28;21053;-89
2022/12/25 09:01:38;;;;;;;9.90;8.90;;;9.70;99.90;;;;;;5094209;28;20195;-92
2022/12/25 09:04:04;;;;;;;9.23;8.33;;;9.60;99.90;;;;;;5098275;28;20256;-87
2022/12/25 09:06:29;;;;;;;12.10;10.67;;;9.70;99.90;;;;;;5102774;28;20190;-88
2022/12/25 09:08:55;;;;;;;10.47;9.47;;;9.70;99.90;;;;;;5096669;28;20565;-86
2022/12/25 09:11:21;;;;;;;10.70;9.67;;;9.80;99.90;;;;;;5104534;28;20215;-87
2022/12/25 09:13:48;;;;;;;10.33;9.33;;;9.80;99.90;;;;;;5104118;28;20209;-86
2022/12/25 09:16:17;;;;;;;10.63;9.07;;;9.90;99.90;;;;;;5099307;28;20182;-86
2022/12/25 09:18:43;;;;;;;8.00;7.23;;;10.10;99.90;;;;;;5118975;28;20177;-88
2022/12/25 09:21:11;;;;;;;9.30;6.60;;;10.30;99.90;;;;;;5109399;28;20194;-85
2022/12/25 09:23:37;;;;;;;7.53;6.07;;;10.40;99.90;;;;;;5109447;28;20201;-88
2022/12/25 09:26:05;;;;;;;6.67;5.07;;;10.40;99.90;;;;;;5109658;28;20202;-87
2022/12/25 09:28:32;;;;;;;4.73;4.30;;;10.40;99.90;;;;;;5104276;28;20226;-87
2022/12/25 09:30:58;;;;;;;5.37;4.87;;;10.40;99.90;;;;;;5099945;28;20244;-88
2022/12/25 09:33:26;;;;;;;6.37;4.23;;;10.30;99.90;;;;;;5112984;28;20161;-89
2022/12/25 09:35:59;;;;;;;5.20;4.60;;;10.30;99.90;;;;;;5115631;28;20178;-89
2022/12/25 09:38:25;;;;;;;5.73;4.30;;;10.30;99.90;;;;;;5106989;28;20187;-87
2022/12/25 09:41:02;;;;;;;4.30;3.90;;;10.40;99.90;;;;;;5201633;22;20230;-86
2022/12/25 09:43:31;;;;;;;4.27;3.97;;;10.40;99.90;;;;;;5104653;28;20265;-89
2022/12/25 09:45:59;;;;;;;5.67;4.17;;;10.40;99.90;;;;;;5101581;28;20202;-86
2022/12/25 09:48:29;;;;;;;4.37;3.97;;;10.30;99.90;;;;;;5091814;28;20183;-86
2022/12/25 09:51:07;;;;;;;5.10;4.27;;;10.40;99.90;;;;;;5102986;28;20206;-88
2022/12/25 09:53:43;;;;;;;4.20;3.90;;;10.40;99.90;;;;;;5106582;28;20786;-88
2022/12/25 09:56:18;;;;;;;4.83;4.37;;;10.60;99.90;;;;;;5103685;28;20171;-86
2022/12/25 09:58:44;;;;;;;4.53;4.10;;;10.70;99.90;;;;;;5101350;28;20202;-88
2022/12/25 10:01:22;;;;;;;4.57;4.17;;;10.80;99.90;;;;;;5101875;28;20186;-91
2022/12/25 10:04:03;;;;;;;5.63;4.20;;;10.90;99.90;;;;;;5110857;28;20167;-88
2022/12/25 10:06:50;;;;;;;3.90;3.50;;;10.90;99.90;;;;;;5121738;28;20204;-91
2022/12/25 10:09:31;;;;;;;4.93;3.77;;;10.90;99.90;;;;;;5099795;28;20651;-88
2022/12/25 10:12:39;;;;;;;4.23;3.80;;;11.00;99.90;;;;;;5092630;28;20189;-87
2022/12/25 10:15:30;;;;;;;6.97;5.40;;;11.10;99.90;;;;;;5105816;28;20181;-86
2022/12/25 10:18:20;;;;;;;9.30;5.13;;;11.00;99.90;;;;;;5103652;28;20193;-86
2022/12/25 10:20:53;;;;;;;5.57;4.80;;;10.90;99.90;;;;;;5099253;28;20211;-87
2022/12/25 10:23:23;;;;;;;5.47;4.73;;;11.10;99.90;;;;;;5121344;28;20187;-87
2022/12/25 10:25:51;;;;;;;6.10;5.17;;;11.40;99.90;;;;;;5108979;28;20179;-90
2022/12/25 10:28:34;;;;;;;5.60;4.70;;;11.60;99.90;;;;;;5113301;28;20178;-89
2022/12/25 10:31:21;;;;;;;5.57;5.07;;;12.00;99.90;;;;;;5113948;28;20258;-86
2022/12/25 10:33:52;;;;;;;5.93;4.93;;;12.30;99.90;;;;;;5106505;28;20180;-88
2022/12/25 10:36:23;;;;;;;6.23;5.27;;;12.70;99.90;;;;;;5109565;28;20270;-88
2022/12/25 10:38:49;;;;;;;5.33;4.67;;;12.60;99.90;;;;;;5112504;28;20175;-87
2022/12/25 10:41:38;;;;;;;6.97;5.30;;;12.60;99.90;;;;;;5104429;27;20194;-88
2022/12/25 10:44:19;;;;;;;5.47;4.93;;;12.50;99.90;;;;;;5114793;28;20228;-87
2022/12/25 10:46:48;;;;;;;5.03;4.60;;;12.60;99.90;;;;;;5103833;28;20190;-86
2022/12/25 10:49:15;;;;;;;5.20;4.70;;;12.70;99.90;;;;;;5101633;28;20229;-92
2022/12/25 10:51:41;;;;;;;5.47;4.93;;;12.90;99.90;;;;;;5107049;28;20165;-90
2022/12/25 10:54:21;;;;;;;5.53;4.90;;;13.10;99.90;;;;;;5108346;28;20160;-91
2022/12/25 10:56:54;;;;;;;7.10;5.47;;;12.80;99.90;;;;;;5110921;28;20182;-90
2022/12/25 10:59:21;;;;;;;5.97;5.43;;;12.60;99.90;;;;;;5105949;28;20191;-87
2022/12/25 11:01:47;;;;;;;8.23;6.20;;;12.60;99.90;;;;;;5093829;28;20206;-90
2022/12/25 11:04:23;;;;;;;6.83;4.90;;;12.70;99.90;;;;;;5092975;28;20190;-88
2022/12/25 11:07:05;;;;;;;5.27;4.73;;;12.80;99.90;;;;;;5100447;28;20173;-88
2022/12/25 11:09:38;;;;;;;6.67;5.70;;;12.80;99.90;;;;;;5097658;28;20222;-87
2022/12/25 11:12:04;;;;;;;6.20;5.60;;;12.90;99.90;;;;;;5100659;28;20252;-87
2022/12/25 11:14:30;;;;;;;5.73;5.20;;;12.90;99.90;;;;;;5094919;28;20187;-91
2022/12/25 11:17:08;;;;;;;6.40;5.10;;;12.80;99.90;;;;;;5095898;28;20208;-88
2022/12/25 11:19:34;;;;;;;6.47;5.00;;;12.50;99.90;;;;;;5096263;28;20203;-88
2022/12/25 11:22:02;;;;;;;5.37;4.37;;;12.40;99.90;;;;;;5109457;28;20212;-89
2022/12/25 11:24:33;;;;;;;4.97;4.37;;;12.20;99.90;;;;;;5098333;28;20297;-89
2022/12/25 11:27:03;;;;;;;4.23;3.47;;;12.10;99.90;;;;;;5098244;28;20207;-90
2022/12/25 11:29:46;;;;;;;4.07;3.67;;;12.20;99.90;;;;;;5102910;28;20721;-86
2022/12/25 11:32:19;;;;;;;4.37;3.33;;;12.00;99.90;;;;;;5100707;28;20167;-87
2022/12/25 11:34:50;;;;;;;3.93;3.47;;;12.10;99.90;;;;;;5111274;28;20198;-88
2022/12/25 11:37:26;;;;;;;3.70;3.37;;;12.30;99.90;;;;;;5095026;28;20192;-91
2022/12/25 11:39:52;;;;;;;5.27;3.57;;;12.60;99.90;;;;;;5138043;22;20790;-89
2022/12/25 11:42:25;;;;;;;5.47;4.07;;;13.00;99.90;;;;;;5101872;28;20164;-87
2022/12/25 11:45:01;;;;;;;3.80;3.43;;;13.20;99.90;;;;;;5101864;28;20170;-88
2022/12/25 11:47:39;;;;;;;4.03;3.63;;;12.90;99.90;;;;;;5103953;28;20176;-87
2022/12/25 11:50:28;;;;;;;3.83;3.53;;;13.10;99.90;;;;;;5104386;28;20719;-88
2022/12/25 11:52:54;;;;;;;4.17;3.77;;;12.90;99.90;;;;;;5100963;28;20232;-91
2022/12/25 11:55:38;;;;;;;5.43;3.97;;;12.90;99.90;;;;;;5110400;28;20186;-88
2022/12/25 11:58:25;;;;;;;4.20;3.47;;;13.20;99.90;;;;;;5106546;28;20175;-85
2022/12/25 12:00:55;;;;;;;4.63;3.67;;;13.40;99.90;;;;;;5109543;28;20200;-87
2022/12/25 12:03:35;;;;;;;5.53;3.70;;;13.70;98.80;;;;;;5110714;28;20232;-91
2022/12/25 12:06:07;;;;;;;4.07;3.77;;;14.00;97.40;;;;;;5109997;28;20175;-86
2022/12/25 12:08:34;;;;;;;4.27;3.87;;;14.60;94.20;;;;;;5097706;28;20194;-89
2022/12/25 12:11:25;;;;;;;5.13;3.90;;;15.10;92.20;;;;;;5103106;28;20182;-89
2022/12/25 12:14:18;;;;;;;5.20;4.20;;;15.50;90.60;;;;;;5110826;28;20169;-88
2022/12/25 12:16:44;;;;;;;4.07;3.67;;;15.50;90.40;;;;;;5107699;28;20798;-86
2022/12/25 12:19:33;;;;;;;4.20;3.80;;;15.30;92.10;;;;;;5111329;28;20267;-90
2022/12/25 12:22:01;;;;;;;5.17;3.90;;;15.20;91.10;;;;;;5108184;28;20192;-90
2022/12/25 12:24:40;;;;;;;4.00;3.70;;;15.80;89.20;;;;;;5112615;28;20182;-88
2022/12/25 12:27:26;;;;;;;4.82;4.10;;;16.00;87.80;;;;;;5117130;28;20283;-86
2022/12/25 12:29:58;;;;;;;4.07;3.67;;;16.20;86.20;;;;;;5107582;28;20216;-89
2022/12/25 12:32:33;;;;;;;5.07;4.07;;;16.40;86.00;;;;;;5107915;28;20182;-86
2022/12/25 12:35:25;;;;;;;4.10;3.80;;;16.60;85.00;;;;;;5111284;28;20196;-87
2022/12/25 12:38:03;;;;;;;3.67;3.38;;;16.70;83.60;;;;;;5111022;28;20193;-91
2022/12/25 12:41:02;;;;;;;3.72;3.33;;;16.50;85.20;;;;;;5103242;28;20223;-88
2022/12/25 12:43:30;;;;;;;4.05;3.67;;;16.50;84.30;;;;;;5109370;28;20312;-86
2022/12/25 12:46:05;;;;;;;3.58;3.28;;;16.40;86.00;;;;;;5107961;28;20190;-85
2022/12/25 12:48:39;;;;;;;4.05;3.47;;;16.50;85.40;;;;;;5111235;28;20337;-86
2022/12/25 12:51:13;;;;;;;4.07;3.75;;;16.30;83.30;;;;;;5110607;28;20204;-86
2022/12/25 12:53:41;;;;;;;3.70;3.40;;;16.10;84.00;;;;;;5109998;28;20178;-87
2022/12/25 12:56:16;;;;;;;3.70;3.40;;;16.00;84.90;;;;;;5111848;28;20182;-87
2022/12/25 12:58:48;;;;;;;4.07;3.70;;;15.90;87.50;;;;;;5106936;28;20199;-90
2022/12/25 13:01:26;;;;;;;5.03;4.00;;;15.50;88.20;;;;;;5108982;28;20227;-86
2022/12/25 13:04:20;;;;;;;4.00;3.60;;;15.10;90.70;;;;;;5093502;28;20204;-85
2022/12/25 13:07:19;;;;;;;4.53;3.70;;;15.00;89.50;;;;;;5109980;28;20244;-92
2022/12/25 13:09:54;;;;;;;4.03;3.57;;;15.00;90.60;;;;;;5112960;28;20211;-86
2022/12/25 13:12:21;;;;;;;4.50;3.90;;;14.90;91.80;;;;;;5112974;28;20237;-86
2022/12/25 13:14:48;;;;;;;4.57;4.17;;;14.70;93.20;;;;;;5109285;28;20187;-87
2022/12/25 13:17:20;;;;;;;3.67;3.37;;;14.50;94.00;;;;;;5110338;28;20189;-86
2022/12/25 13:19:56;;;;;;;4.43;3.57;;;14.40;93.70;;;;;;5104984;28;20221;-87
2022/12/25 13:22:29;;;;;;;3.80;3.50;;;14.20;97.00;;;;;;5111713;28;20186;-90
2022/12/25 13:24:59;;;;;;;6.67;3.70;;;14.20;96.70;;;;;;5109328;28;20218;-86
2022/12/25 13:27:29;;;;;;;4.13;3.70;;;14.10;97.40;;;;;;5110538;28;20182;-88
2022/12/25 13:29:56;;;;;;;4.10;3.63;;;14.10;97.50;;;;;;5111559;28;20212;-87
2022/12/25 13:32:30;;;;;;;4.27;3.37;;;14.10;96.90;;;;;;5114155;28;20160;-94
2022/12/25 13:34:57;;;;;;;4.17;3.77;;;13.90;98.10;;;;;;5390165;22;20231;-92
2022/12/25 13:37:26;;;;;;;5.23;3.97;;;13.80;98.70;;;;;;5132394;22;20281;-93
2022/12/25 13:42:31;;;;;;;3.93;3.63;;;13.70;99.50;;;;;;5069313;28;20213;-85
2022/12/25 13:45:20;;;;;;;4.07;3.77;;;13.80;99.60;;;;;;5061056;28;20195;-90
2022/12/25 13:47:49;;;;;;;4.23;3.83;;;13.90;99.00;;;;;;5065503;28;20188;-84
2022/12/25 13:50:23;;;;;;;7.37;5.37;;;13.90;98.40;;;;;;5047262;28;20244;-84
2022/12/25 13:52:54;;;;;;;6.43;4.73;;;13.90;99.70;;;;;;5079390;28;20203;-88
2022/12/25 13:55:26;;;;;;;5.00;4.57;;;13.90;99.60;;;;;;5063082;28;20199;-87
2022/12/25 13:57:58;;;;;;;5.97;5.30;;;14.00;97.70;;;;;;5061608;28;20198;-89
2022/12/25 14:00:39;;;;;;;7.00;4.83;;;13.90;98.60;;;;;;5085998;28;20214;-88
2022/12/25 14:03:07;;;;;;;4.73;4.07;;;13.90;99.30;;;;;;5081927;28;20892;-85
2022/12/25 14:05:36;;;;;;;5.10;4.60;;;13.90;99.30;;;;;;5082824;28;20213;-87
2022/12/25 14:08:11;;;;;;;5.03;4.63;;;13.80;98.90;;;;;;5083244;28;20211;-85
2022/12/25 14:10:39;;;;;;;4.87;4.27;;;13.70;99.80;;;;;;5079569;28;20214;-84
2022/12/25 14:13:11;;;;;;;5.03;4.50;;;13.60;99.90;;;;;;5079968;28;20289;-90
2022/12/25 14:15:40;;;;;;;5.07;4.50;;;13.60;99.90;;;;;;5083864;28;20201;-87
2022/12/25 14:18:16;;;;;;;5.27;4.70;;;13.60;99.90;;;;;;5071749;28;20217;-90
2022/12/25 14:20:57;;;;;;;5.37;4.80;;;13.50;99.90;;;;;;5078679;28;20210;-87
2022/12/25 14:23:23;;;;;;;5.47;4.67;;;13.50;99.90;;;;;;5081519;28;20212;-88
2022/12/25 14:25:49;;;;;;;4.73;4.33;;;13.60;99.90;;;;;;5085483;28;20323;-87
2022/12/25 14:28:18;;;;;;;4.57;4.17;;;13.50;99.90;;;;;;5063533;28;20184;-85
2022/12/25 14:30:45;;;;;;;4.30;3.90;;;13.40;99.90;;;;;;5078782;28;20246;-85
2022/12/25 14:33:20;;;;;;;4.57;4.17;;;13.30;99.90;;;;;;5062053;28;20194;-90
2022/12/25 14:35:47;;;;;;;5.27;4.20;;;13.30;99.90;;;;;;5072128;28;20184;-85
2022/12/25 14:38:28;;;;;;;4.30;4.00;;;13.30;99.90;;;;;;5073267;28;20257;-89
2022/12/25 14:40:59;;;;;;;4.60;4.17;;;13.30;99.90;;;;;;5062482;28;20225;-87
2022/12/25 14:43:27;;;;;;;4.80;4.30;;;13.50;99.90;;;;;;5077059;28;20195;-85
2022/12/25 14:45:56;;;;;;;4.97;4.37;;;13.50;99.90;;;;;;5054912;28;20256;-87
2022/12/25 14:48:26;;;;;;;4.60;4.20;;;13.40;99.90;;;;;;5076923;28;20191;-86